Time;durP1;ratioP1;P1;durP2;ratioP2;P2;SDS_P1;SDS_P2;PMS_P1;PMS_P2;Temp;Humidity;BMP_temperature;BMP_pressure;BME280_temperature;BME280_humidity;BME280_pressure;Samples;Min_cycle;Max_cycle;Signal;HPM_P1;HPM_P2
2022/11/22 00:01:15;;;;;;;2.20;1.73;;;;;;;;;;5006313;28;20166;-57
2022/11/22 00:03:41;;;;;;;2.07;1.50;;;;;;;;;;5005696;28;20205;-56
2022/11/22 00:06:07;;;;;;;2.33;1.90;;;;;;;;;;4992562;28;20187;-56
2022/11/22 00:08:33;;;;;;;3.30;1.63;;;;;;;;;;4990327;28;20658;-57
2022/11/22 00:10:59;;;;;;;1.30;1.20;;;;;;;;;;4987947;28;20650;-57
2022/11/22 00:13:25;;;;;;;5.13;1.70;;;;;;;;;;4973503;28;20183;-57
2022/11/22 00:15:58;;;;;;;2.10;1.20;;;;;;;;;;4987552;28;20338;-56
2022/11/22 00:18:24;;;;;;;5.40;1.77;;;;;;;;;;5002764;28;20190;-56
2022/11/22 00:20:50;;;;;;;4.73;1.83;;;;;;;;;;4973240;28;20191;-59
2022/11/22 00:23:16;;;;;;;3.80;1.63;;;;;;;;;;4999736;28;20198;-56
2022/11/22 00:25:42;;;;;;;1.70;1.13;;;;;;;;;;4994800;28;20235;-56
2022/11/22 00:28:08;;;;;;;2.80;1.40;;;;;;;;;;4982359;28;20190;-56
2022/11/22 00:30:34;;;;;;;2.10;1.53;;;;;;;;;;5000930;28;20563;-56
2022/11/22 00:33:00;;;;;;;2.20;1.40;;;;;;;;;;4998955;28;20182;-56
2022/11/22 00:35:26;;;;;;;1.87;1.67;;;;;;;;;;4993121;28;20274;-58
2022/11/22 00:37:52;;;;;;;2.53;1.13;;;;;;;;;;4984695;28;20179;-56
2022/11/22 00:40:18;;;;;;;2.43;1.67;;;;;;;;;;4988995;28;20187;-56
2022/11/22 00:42:44;;;;;;;3.50;1.90;;;;;;;;;;4989616;28;20483;-56
2022/11/22 00:45:10;;;;;;;2.83;1.60;;;;;;;;;;4994449;28;20186;-55
2022/11/22 00:47:36;;;;;;;5.83;2.07;;;;;;;;;;4984623;28;20218;-57
2022/11/22 00:50:03;;;;;;;1.97;1.43;;;;;;;;;;4985029;28;20294;-56
2022/11/22 00:52:29;;;;;;;3.23;1.87;;;;;;;;;;4975691;28;20194;-56
2022/11/22 00:54:55;;;;;;;1.60;1.50;;;;;;;;;;5000484;28;20187;-55
2022/11/22 00:57:21;;;;;;;1.77;1.23;;;;;;;;;;4999922;28;20182;-56
2022/11/22 00:59:47;;;;;;;4.37;1.57;;;;;;;;;;4980476;28;20195;-58
2022/11/22 01:02:13;;;;;;;2.87;1.40;;;;;;;;;;5001305;28;20190;-56
2022/11/22 01:04:39;;;;;;;3.37;1.87;;;;;;;;;;4997684;28;20721;-59
2022/11/22 01:07:05;;;;;;;2.07;1.43;;;;;;;;;;4985050;28;20351;-58
2022/11/22 01:09:31;;;;;;;2.83;1.43;;;;;;;;;;4991034;28;20252;-58
2022/11/22 01:11:57;;;;;;;2.57;1.70;;;;;;;;;;5005718;28;20182;-57
2022/11/22 01:14:23;;;;;;;1.90;1.23;;;;;;;;;;4999231;28;20190;-58
2022/11/22 01:16:49;;;;;;;2.57;1.70;;;;;;;;;;4999535;28;20664;-59
2022/11/22 01:19:15;;;;;;;1.93;1.30;;;;;;;;;;4992883;28;20641;-58
2022/11/22 01:21:48;;;;;;;2.90;1.40;;;;;;;;;;4972187;28;20189;-57
2022/11/22 01:24:14;;;;;;;2.07;1.43;;;;;;;;;;4975067;28;20198;-57
2022/11/22 01:26:47;;;;;;;1.93;1.37;;;;;;;;;;4998195;28;20190;-57
2022/11/22 01:29:14;;;;;;;4.90;1.83;;;;;;;;;;4993235;28;20613;-57
2022/11/22 01:31:40;;;;;;;2.10;1.33;;;;;;;;;;4981561;28;20182;-58
2022/11/22 01:34:06;;;;;;;2.40;1.57;;;;;;;;;;4992720;28;20175;-57
2022/11/22 01:36:32;;;;;;;3.73;1.90;;;;;;;;;;4969440;28;20183;-58
2022/11/22 01:38:58;;;;;;;3.27;1.50;;;;;;;;;;4999469;28;20178;-60
2022/11/22 01:41:24;;;;;;;1.50;1.40;;;;;;;;;;4995847;28;20480;-60
2022/11/22 01:43:50;;;;;;;3.83;1.67;;;;;;;;;;4979444;28;20734;-60
2022/11/22 01:46:23;;;;;;;2.40;1.70;;;;;;;;;;4993451;28;20202;-60
2022/11/22 01:48:55;;;;;;;2.27;1.70;;;;;;;;;;4995642;28;20301;-60
2022/11/22 01:51:26;;;;;;;2.77;1.80;;;;;;;;;;4987873;28;21574;-60
2022/11/22 01:53:53;;;;;;;2.43;1.60;;;;;;;;;;4990927;28;20230;-61
2022/11/22 01:56:20;;;;;;;1.83;1.70;;;;;;;;;;4997914;28;20179;-61
2022/11/22 01:58:47;;;;;;;1.83;1.33;;;;;;;;;;4993351;28;20187;-61
2022/11/22 02:01:13;;;;;;;2.50;1.83;;;;;;;;;;4989756;28;20267;-60
2022/11/22 02:03:41;;;;;;;1.53;1.43;;;;;;;;;;4992669;28;20166;-61
2022/11/22 02:06:07;;;;;;;2.37;1.67;;;;;;;;;;4991855;28;21045;-60
2022/11/22 02:08:37;;;;;;;2.53;1.37;;;;;;;;;;4986709;28;20209;-61
2022/11/22 02:11:03;;;;;;;2.90;1.50;;;;;;;;;;4985264;28;20213;-60
2022/11/22 02:13:31;;;;;;;1.20;1.13;;;;;;;;;;4980464;28;20697;-60
2022/11/22 02:15:58;;;;;;;1.47;1.37;;;;;;;;;;4976753;28;20599;-60
2022/11/22 02:18:24;;;;;;;3.73;2.03;;;;;;;;;;5004376;28;20194;-61
2022/11/22 02:20:50;;;;;;;3.73;1.73;;;;;;;;;;4980805;28;20198;-60
2022/11/22 02:23:36;;;;;;;3.67;2.17;;;;;;;;;;4996952;28;20183;-61
2022/11/22 02:26:02;;;;;;;2.40;1.23;;;;;;;;;;4949622;28;20213;-61
2022/11/22 02:28:30;;;;;;;2.63;1.30;;;;;;;;;;4969677;28;20400;-61
2022/11/22 02:30:56;;;;;;;2.17;1.50;;;;;;;;;;4986236;28;20202;-60
2022/11/22 02:33:22;;;;;;;2.33;1.73;;;;;;;;;;4971790;28;20180;-61
2022/11/22 02:35:48;;;;;;;4.60;1.60;;;;;;;;;;4987978;28;20286;-60
2022/11/22 02:38:16;;;;;;;2.27;1.40;;;;;;;;;;4994434;28;20258;-60
2022/11/22 02:40:49;;;;;;;2.90;1.50;;;;;;;;;;4991531;28;20190;-61
2022/11/22 02:43:20;;;;;;;1.50;1.40;;;;;;;;;;4986745;28;20191;-61
2022/11/22 02:45:46;;;;;;;2.70;1.37;;;;;;;;;;4982621;28;20348;-61
2022/11/22 02:48:13;;;;;;;2.67;1.50;;;;;;;;;;4995469;28;20190;-61
2022/11/22 02:50:40;;;;;;;5.03;1.80;;;;;;;;;;4989024;28;20234;-61
2022/11/22 02:53:07;;;;;;;2.73;1.50;;;;;;;;;;4969507;28;20186;-61
2022/11/22 02:55:33;;;;;;;1.70;1.33;;;;;;;;;;4987249;28;20175;-60
2022/11/22 02:57:59;;;;;;;2.43;1.37;;;;;;;;;;4985463;28;20194;-61
2022/11/22 03:00:25;;;;;;;1.87;1.63;;;;;;;;;;4991087;28;20195;-60
2022/11/22 03:02:51;;;;;;;2.00;1.53;;;;;;;;;;4986278;28;20183;-61
2022/11/22 03:05:17;;;;;;;2.57;1.73;;;;;;;;;;4993287;28;20253;-61
2022/11/22 03:07:43;;;;;;;2.67;1.70;;;;;;;;;;4992200;28;20186;-61
2022/11/22 03:10:10;;;;;;;4.23;1.83;;;;;;;;;;4983481;28;20314;-61
2022/11/22 03:12:36;;;;;;;2.10;1.37;;;;;;;;;;4989601;28;20611;-61
2022/11/22 03:15:02;;;;;;;1.93;1.83;;;;;;;;;;4996607;28;20258;-61
2022/11/22 03:17:28;;;;;;;3.87;2.50;;;;;;;;;;4983217;28;20175;-61
2022/11/22 03:19:54;;;;;;;1.70;1.60;;;;;;;;;;4986983;28;20182;-61
2022/11/22 03:22:20;;;;;;;2.00;1.50;;;;;;;;;;4993720;28;20349;-61
2022/11/22 03:24:46;;;;;;;1.70;1.60;;;;;;;;;;4998794;28;20617;-62
2022/11/22 03:27:12;;;;;;;2.20;1.67;;;;;;;;;;4997230;28;20249;-61
2022/11/22 03:29:38;;;;;;;1.37;1.23;;;;;;;;;;4997291;28;20218;-61
2022/11/22 03:32:04;;;;;;;2.07;1.40;;;;;;;;;;4989561;28;20182;-60
2022/11/22 03:34:30;;;;;;;2.33;1.73;;;;;;;;;;4994170;28;20676;-61
2022/11/22 03:36:56;;;;;;;1.67;1.43;;;;;;;;;;4994918;28;20206;-61
2022/11/22 03:39:23;;;;;;;2.30;1.53;;;;;;;;;;4990150;28;20227;-61
2022/11/22 03:41:49;;;;;;;4.13;1.60;;;;;;;;;;4970166;28;20225;-61
2022/11/22 03:44:15;;;;;;;1.80;1.47;;;;;;;;;;4990350;28;20230;-61
2022/11/22 03:46:41;;;;;;;1.33;1.13;;;;;;;;;;4987846;28;20227;-61
2022/11/22 03:49:10;;;;;;;1.83;1.47;;;;;;;;;;4996625;28;20621;-61
2022/11/22 03:51:36;;;;;;;1.77;1.53;;;;;;;;;;4999579;28;20270;-61
2022/11/22 03:54:02;;;;;;;1.77;1.50;;;;;;;;;;4990099;28;20183;-61
2022/11/22 03:56:28;;;;;;;2.60;1.30;;;;;;;;;;4996686;28;20530;-61
2022/11/22 03:58:54;;;;;;;3.63;1.63;;;;;;;;;;5007538;28;20304;-61
2022/11/22 04:01:20;;;;;;;3.93;2.03;;;;;;;;;;4996129;28;20195;-61
2022/11/22 04:03:46;;;;;;;2.30;1.30;;;;;;;;;;4972318;28;20657;-61
2022/11/22 04:06:12;;;;;;;2.90;1.53;;;;;;;;;;4993865;28;20594;-61
2022/11/22 04:08:39;;;;;;;2.27;1.50;;;;;;;;;;4985044;28;20175;-61
2022/11/22 04:11:05;;;;;;;2.87;1.53;;;;;;;;;;4987487;28;20198;-61
2022/11/22 04:16:16;;;;;;;3.00;1.80;;;;;;;;;;5003836;28;20230;-61
2022/11/22 04:18:42;;;;;;;1.80;1.37;;;;;;;;;;5005157;28;20187;-61
2022/11/22 04:26:37;;;;;;;2.57;1.70;;;;;;;;;;4988043;28;20355;-61
2022/11/22 04:29:03;;;;;;;1.57;1.30;;;;;;;;;;5007083;28;20193;-61
2022/11/22 04:34:14;;;;;;;2.83;1.77;;;;;;;;;;4991045;28;20197;-61
2022/11/22 04:36:40;;;;;;;1.70;1.40;;;;;;;;;;4988195;28;20824;-60
2022/11/22 04:39:07;;;;;;;3.40;1.57;;;;;;;;;;4990497;28;20217;-60
2022/11/22 04:41:33;;;;;;;3.33;1.80;;;;;;;;;;4973714;28;20281;-60
2022/11/22 04:46:43;;;;;;;3.67;2.07;;;;;;;;;;4988105;28;20538;-60
2022/11/22 04:49:12;;;;;;;2.83;1.57;;;;;;;;;;4988913;28;20666;-60
2022/11/22 04:54:23;;;;;;;2.63;1.40;;;;;;;;;;4997764;28;20194;-60
2022/11/22 04:56:49;;;;;;;1.97;1.53;;;;;;;;;;4972352;28;20276;-60
2022/11/22 04:59:15;;;;;;;4.10;1.80;;;;;;;;;;5001847;28;20197;-60
2022/11/22 05:01:41;;;;;;;2.23;1.53;;;;;;;;;;4991363;28;20310;-61
2022/11/22 05:04:07;;;;;;;2.63;1.60;;;;;;;;;;4990520;28;20213;-60
2022/11/22 05:06:33;;;;;;;1.80;1.60;;;;;;;;;;4996287;28;20230;-60
2022/11/22 05:08:59;;;;;;;3.43;2.07;;;;;;;;;;5001481;28;20218;-60
2022/11/22 05:11:25;;;;;;;3.53;2.00;;;;;;;;;;4985153;28;20187;-60
2022/11/22 05:13:51;;;;;;;2.40;1.53;;;;;;;;;;4993320;28;20701;-60
2022/11/22 05:16:17;;;;;;;4.13;1.57;;;;;;;;;;4989798;28;20187;-60
2022/11/22 05:18:57;;;;;;;2.10;1.50;;;;;;;;;;4986377;28;20190;-60
2022/11/22 05:21:23;;;;;;;2.60;1.77;;;;;;;;;;4984924;28;20642;-61
2022/11/22 05:23:53;;;;;;;4.50;1.20;;;;;;;;;;4992260;28;20178;-60
2022/11/22 05:26:19;;;;;;;3.17;1.70;;;;;;;;;;4993446;28;20190;-60
2022/11/22 05:28:45;;;;;;;4.00;1.77;;;;;;;;;;4985200;28;20183;-65
2022/11/22 05:31:13;;;;;;;1.90;1.43;;;;;;;;;;4986853;28;20250;-60
2022/11/22 05:33:40;;;;;;;2.73;1.50;;;;;;;;;;4970005;28;20649;-60
2022/11/22 05:36:06;;;;;;;3.63;1.50;;;;;;;;;;4988694;28;20242;-60
2022/11/22 05:38:36;;;;;;;4.73;1.70;;;;;;;;;;4991062;28;20274;-60
2022/11/22 05:41:03;;;;;;;3.33;1.70;;;;;;;;;;4994603;28;20228;-60
2022/11/22 05:43:29;;;;;;;2.60;2.13;;;;;;;;;;4974781;28;20722;-61
2022/11/22 05:45:55;;;;;;;1.97;1.60;;;;;;;;;;4997588;28;20207;-59
2022/11/22 05:48:21;;;;;;;4.87;2.70;;;;;;;;;;4996240;28;20190;-60
2022/11/22 05:50:47;;;;;;;6.77;2.03;;;;;;;;;;4976683;28;20577;-62
2022/11/22 05:53:13;;;;;;;11.87;2.83;;;;;;;;;;4991517;28;20234;-62
2022/11/22 05:55:39;;;;;;;4.83;2.10;;;;;;;;;;4990919;28;20205;-61
2022/11/22 05:58:05;;;;;;;4.80;1.87;;;;;;;;;;4995298;28;20183;-62
2022/11/22 06:00:31;;;;;;;4.23;2.40;;;;;;;;;;4988281;28;20189;-62
2022/11/22 06:03:01;;;;;;;7.20;2.30;;;;;;;;;;4985695;28;20187;-61
2022/11/22 06:05:27;;;;;;;5.47;1.80;;;;;;;;;;4995325;28;20179;-61
2022/11/22 06:07:56;;;;;;;3.07;2.00;;;;;;;;;;4999660;28;20656;-62
2022/11/22 06:10:22;;;;;;;2.73;1.77;;;;;;;;;;5002695;28;20638;-63
2022/11/22 06:12:48;;;;;;;6.77;2.00;;;;;;;;;;4990901;28;20216;-63
2022/11/22 06:15:21;;;;;;;4.70;1.90;;;;;;;;;;5003390;28;20179;-63
2022/11/22 06:17:47;;;;;;;3.20;1.70;;;;;;;;;;4993413;28;20709;-62
2022/11/22 06:20:13;;;;;;;3.77;1.90;;;;;;;;;;4989110;28;20205;-62
2022/11/22 06:22:39;;;;;;;2.73;1.73;;;;;;;;;;4975838;28;20502;-62
2022/11/22 06:25:06;;;;;;;5.33;1.80;;;;;;;;;;5012641;28;20645;-62
2022/11/22 06:27:32;;;;;;;3.57;2.10;;;;;;;;;;4989280;28;20221;-62
2022/11/22 06:29:58;;;;;;;6.47;1.90;;;;;;;;;;4991724;28;20593;-62
2022/11/22 06:32:24;;;;;;;6.07;2.70;;;;;;;;;;4998669;28;20522;-63
2022/11/22 06:34:50;;;;;;;4.93;1.93;;;;;;;;;;5004256;28;20458;-62
2022/11/22 06:37:16;;;;;;;5.07;1.73;;;;;;;;;;4994273;28;20186;-62
2022/11/22 06:39:42;;;;;;;5.13;1.67;;;;;;;;;;4995708;28;20190;-63
2022/11/22 06:42:08;;;;;;;6.50;2.53;;;;;;;;;;5004744;28;20166;-63
2022/11/22 06:44:34;;;;;;;4.60;2.10;;;;;;;;;;5002758;28;20266;-63
2022/11/22 06:47:00;;;;;;;3.77;1.83;;;;;;;;;;4994716;28;20296;-62
2022/11/22 06:49:26;;;;;;;2.20;2.00;;;;;;;;;;4989308;28;20385;-63
2022/11/22 06:51:52;;;;;;;4.30;1.90;;;;;;;;;;4997113;28;20597;-62
2022/11/22 06:54:18;;;;;;;2.93;2.27;;;;;;;;;;4974554;28;20617;-63
2022/11/22 06:56:44;;;;;;;4.80;2.53;;;;;;;;;;4985618;28;20168;-62
2022/11/22 06:59:17;;;;;;;7.03;2.43;;;;;;;;;;4991513;28;20186;-62
2022/11/22 07:01:43;;;;;;;4.13;1.93;;;;;;;;;;5001950;28;20284;-62
2022/11/22 07:04:09;;;;;;;3.07;1.97;;;;;;;;;;4996689;28;20190;-62
2022/11/22 07:06:37;;;;;;;3.97;1.93;;;;;;;;;;4991544;28;20406;-62
2022/11/22 07:09:04;;;;;;;4.70;2.10;;;;;;;;;;4992456;28;20205;-63
2022/11/22 07:11:31;;;;;;;4.33;1.90;;;;;;;;;;4988626;28;20459;-62
2022/11/22 07:13:58;;;;;;;3.67;2.27;;;;;;;;;;4972473;28;20233;-62
2022/11/22 07:16:24;;;;;;;3.53;1.70;;;;;;;;;;4981472;28;20192;-63
2022/11/22 07:18:50;;;;;;;6.33;2.03;;;;;;;;;;5003469;28;20288;-62
2022/11/22 07:21:23;;;;;;;6.00;2.27;;;;;;;;;;5006489;28;20186;-63
2022/11/22 07:23:51;;;;;;;4.50;2.03;;;;;;;;;;4998384;28;20182;-62
2022/11/22 07:26:18;;;;;;;4.17;1.93;;;;;;;;;;4999959;28;20190;-62
2022/11/22 07:28:44;;;;;;;2.23;1.57;;;;;;;;;;4989955;28;20273;-62
2022/11/22 07:31:12;;;;;;;4.27;1.90;;;;;;;;;;4994389;28;20700;-62
2022/11/22 07:33:38;;;;;;;6.83;2.63;;;;;;;;;;4983144;28;20179;-63
2022/11/22 07:36:12;;;;;;;4.17;2.17;;;;;;;;;;4988532;28;20219;-64
2022/11/22 07:38:38;;;;;;;4.40;2.43;;;;;;;;;;4999057;28;20171;-63
2022/11/22 07:41:04;;;;;;;5.23;2.13;;;;;;;;;;4996620;28;20183;-62
2022/11/22 07:43:30;;;;;;;4.43;1.80;;;;;;;;;;5008113;28;20505;-63
2022/11/22 07:46:00;;;;;;;4.53;2.07;;;;;;;;;;5005832;28;20233;-62
2022/11/22 07:48:26;;;;;;;4.53;2.03;;;;;;;;;;5008810;28;20194;-63
2022/11/22 07:50:52;;;;;;;5.27;2.30;;;;;;;;;;5001906;28;20199;-63
2022/11/22 07:53:18;;;;;;;3.43;1.80;;;;;;;;;;4988042;28;20166;-63
2022/11/22 07:55:44;;;;;;;5.90;2.30;;;;;;;;;;4994556;28;20258;-63
2022/11/22 07:58:10;;;;;;;2.93;1.80;;;;;;;;;;4988217;28;20167;-62
2022/11/22 08:00:36;;;;;;;6.33;1.83;;;;;;;;;;4998820;28;20170;-62
2022/11/22 08:03:02;;;;;;;2.93;2.00;;;;;;;;;;5007745;28;20249;-63
2022/11/22 08:05:28;;;;;;;3.37;1.80;;;;;;;;;;5005758;28;20190;-62
2022/11/22 08:07:54;;;;;;;7.10;2.10;;;;;;;;;;5007639;28;20171;-63
2022/11/22 08:10:21;;;;;;;5.57;1.53;;;;;;;;;;5007764;28;20202;-62
2022/11/22 08:12:47;;;;;;;7.70;2.20;;;;;;;;;;4996684;28;20518;-62
2022/11/22 08:15:15;;;;;;;5.83;2.40;;;;;;;;;;5002674;28;20183;-62
2022/11/22 08:17:41;;;;;;;8.13;1.97;;;;;;;;;;4987693;28;20178;-61
2022/11/22 08:20:08;;;;;;;3.40;2.00;;;;;;;;;;4986822;28;20187;-61
2022/11/22 08:22:34;;;;;;;4.70;1.93;;;;;;;;;;5003480;28;20212;-62
2022/11/22 08:25:00;;;;;;;4.93;2.03;;;;;;;;;;5007411;28;20197;-62
2022/11/22 08:27:26;;;;;;;2.30;1.90;;;;;;;;;;5000917;28;20186;-61
2022/11/22 08:29:52;;;;;;;5.90;1.73;;;;;;;;;;4997079;28;20281;-61
2022/11/22 08:32:18;;;;;;;5.97;2.27;;;;;;;;;;4989871;28;20191;-62
2022/11/22 08:34:44;;;;;;;6.20;2.33;;;;;;;;;;4996576;28;20259;-61
2022/11/22 08:37:10;;;;;;;6.87;2.03;;;;;;;;;;4977780;28;20717;-62
2022/11/22 08:39:36;;;;;;;2.50;1.37;;;;;;;;;;5002476;28;20191;-61
2022/11/22 08:42:03;;;;;;;2.23;1.40;;;;;;;;;;5006469;28;20171;-62
2022/11/22 08:44:29;;;;;;;3.87;2.37;;;;;;;;;;4987770;28;20186;-62
2022/11/22 08:46:55;;;;;;;3.17;1.80;;;;;;;;;;4988181;28;20272;-62
2022/11/22 08:49:21;;;;;;;3.83;1.50;;;;;;;;;;5007247;28;20545;-62
2022/11/22 08:51:47;;;;;;;3.07;1.83;;;;;;;;;;4991044;28;20659;-63
2022/11/22 08:54:14;;;;;;;4.63;1.70;;;;;;;;;;4970653;28;22198;-63
2022/11/22 08:56:40;;;;;;;4.43;1.60;;;;;;;;;;4977456;28;20261;-64
2022/11/22 08:59:06;;;;;;;2.70;1.60;;;;;;;;;;5006939;28;20166;-63
2022/11/22 09:01:32;;;;;;;8.50;2.00;;;;;;;;;;5003757;28;20249;-63
2022/11/22 09:03:58;;;;;;;7.97;2.10;;;;;;;;;;4988010;28;20230;-63
2022/11/22 09:06:24;;;;;;;6.47;1.90;;;;;;;;;;4996970;28;20186;-63
2022/11/22 09:08:51;;;;;;;4.73;1.67;;;;;;;;;;5006127;28;20179;-65
2022/11/22 09:11:18;;;;;;;4.10;1.70;;;;;;;;;;4983140;28;20253;-63
2022/11/22 09:13:44;;;;;;;2.07;1.40;;;;;;;;;;4995192;28;20234;-64
2022/11/22 09:16:15;;;;;;;5.00;1.93;;;;;;;;;;4992662;28;20571;-64
2022/11/22 09:18:41;;;;;;;2.63;1.40;;;;;;;;;;4988708;28;20170;-62
2022/11/22 09:21:08;;;;;;;3.70;1.93;;;;;;;;;;5000436;28;20274;-64
2022/11/22 09:23:35;;;;;;;5.20;1.80;;;;;;;;;;4970554;28;20190;-63
2022/11/22 09:26:05;;;;;;;5.87;2.57;;;;;;;;;;4998031;28;20588;-63
2022/11/22 09:28:31;;;;;;;4.17;1.70;;;;;;;;;;4994863;28;20265;-63
2022/11/22 09:30:58;;;;;;;2.90;1.80;;;;;;;;;;5004567;28;20557;-63
2022/11/22 09:33:24;;;;;;;6.83;2.40;;;;;;;;;;4991380;28;20182;-63
2022/11/22 09:35:50;;;;;;;2.80;2.03;;;;;;;;;;4962337;28;20219;-63
2022/11/22 09:38:16;;;;;;;6.37;2.37;;;;;;;;;;4949952;28;20276;-62
2022/11/22 09:40:46;;;;;;;3.90;1.80;;;;;;;;;;4981701;28;20200;-64
2022/11/22 09:43:15;;;;;;;2.80;1.77;;;;;;;;;;4967441;28;20195;-62
2022/11/22 09:45:44;;;;;;;4.63;1.93;;;;;;;;;;4968503;28;20203;-62
2022/11/22 09:48:36;;;;;;;6.03;1.67;;;;;;;;;;4960669;28;20256;-62
2022/11/22 09:51:07;;;;;;;5.20;2.13;;;;;;;;;;4975513;28;20672;-62
2022/11/22 09:53:54;;;;;;;3.50;1.83;;;;;;;;;;4983998;28;20738;-63
2022/11/22 09:56:23;;;;;;;5.63;2.27;;;;;;;;;;4984332;28;20175;-63
2022/11/22 09:58:55;;;;;;;2.83;1.73;;;;;;;;;;4971522;28;20172;-62
2022/11/22 10:01:27;;;;;;;3.00;1.70;;;;;;;;;;4985771;28;20171;-61
2022/11/22 10:03:53;;;;;;;5.03;1.83;;;;;;;;;;4975256;28;20259;-61
2022/11/22 10:06:28;;;;;;;2.83;1.90;;;;;;;;;;4976531;28;20186;-62
2022/11/22 10:08:59;;;;;;;6.67;1.70;;;;;;;;;;4987399;28;20170;-62
2022/11/22 10:11:35;;;;;;;2.33;1.40;;;;;;;;;;5005019;28;20193;-62
2022/11/22 10:14:04;;;;;;;3.90;1.67;;;;;;;;;;4985601;28;20171;-61
2022/11/22 10:16:32;;;;;;;3.43;1.70;;;;;;;;;;4968830;28;20190;-63
2022/11/22 10:19:19;;;;;;;3.63;1.80;;;;;;;;;;4966213;28;20552;-64
2022/11/22 10:21:48;;;;;;;3.30;1.80;;;;;;;;;;4955918;28;20736;-65
2022/11/22 10:24:15;;;;;;;5.00;1.83;;;;;;;;;;4985269;28;20338;-64
2022/11/22 10:26:42;;;;;;;2.50;1.40;;;;;;;;;;4985522;28;20163;-63
2022/11/22 10:29:22;;;;;;;7.77;1.90;;;;;;;;;;4984618;28;20187;-64
2022/11/22 10:32:06;;;;;;;4.43;2.13;;;;;;;;;;4985049;28;20246;-64
2022/11/22 10:34:35;;;;;;;2.70;1.73;;;;;;;;;;4985682;28;20258;-64
2022/11/22 10:37:14;;;;;;;1.67;1.30;;;;;;;;;;4972262;28;20226;-64
2022/11/22 10:39:49;;;;;;;4.03;1.70;;;;;;;;;;4967943;28;20195;-64
2022/11/22 10:42:18;;;;;;;3.97;1.90;;;;;;;;;;4988460;28;20579;-65
2022/11/22 10:45:00;;;;;;;4.03;1.73;;;;;;;;;;4968137;28;20242;-64
2022/11/22 10:47:26;;;;;;;3.20;1.30;;;;;;;;;;4998210;28;20214;-63
2022/11/22 10:50:00;;;;;;;5.53;1.93;;;;;;;;;;5000213;28;20329;-62
2022/11/22 10:52:38;;;;;;;2.00;1.40;;;;;;;;;;4977053;28;20183;-62
2022/11/22 10:55:15;;;;;;;7.20;1.67;;;;;;;;;;4985991;28;20392;-62
2022/11/22 10:57:51;;;;;;;1.63;1.20;;;;;;;;;;4985440;28;20152;-62
2022/11/22 11:00:17;;;;;;;1.43;1.30;;;;;;;;;;4984978;28;20171;-62
2022/11/22 11:02:58;;;;;;;4.60;1.63;;;;;;;;;;4985005;28;20179;-61
2022/11/22 11:05:32;;;;;;;3.87;1.80;;;;;;;;;;4984799;28;20215;-62
2022/11/22 11:07:59;;;;;;;3.10;1.20;;;;;;;;;;4985209;28;20174;-61
2022/11/22 11:10:27;;;;;;;3.23;1.60;;;;;;;;;;4967139;28;20207;-61
2022/11/22 11:12:59;;;;;;;2.10;1.53;;;;;;;;;;4985051;28;20179;-61
2022/11/22 11:15:33;;;;;;;2.43;1.27;;;;;;;;;;4984875;28;20175;-61
2022/11/22 11:18:01;;;;;;;3.80;1.43;;;;;;;;;;4985705;28;20694;-61
2022/11/22 11:20:30;;;;;;;4.03;1.40;;;;;;;;;;4984014;28;20159;-61
2022/11/22 11:22:56;;;;;;;2.10;1.23;;;;;;;;;;4985085;28;20194;-61
2022/11/22 11:25:31;;;;;;;2.13;1.50;;;;;;;;;;4985094;28;20602;-61
2022/11/22 11:27:59;;;;;;;2.97;1.10;;;;;;;;;;4985245;28;20155;-61
2022/11/22 11:30:25;;;;;;;1.30;0.90;;;;;;;;;;4984987;28;20262;-61
2022/11/22 11:32:55;;;;;;;3.63;1.20;;;;;;;;;;4967660;28;20622;-60
2022/11/22 11:35:29;;;;;;;1.70;1.10;;;;;;;;;;4985994;28;20242;-60
2022/11/22 11:37:55;;;;;;;6.53;1.57;;;;;;;;;;4984933;28;20253;-60
2022/11/22 11:40:31;;;;;;;2.10;1.30;;;;;;;;;;4984600;28;20163;-60
2022/11/22 11:43:26;;;;;;;3.47;1.87;;;;;;;;;;4984675;28;20179;-60
2022/11/22 11:45:53;;;;;;;4.73;1.40;;;;;;;;;;4975472;28;20294;-61
2022/11/22 11:48:28;;;;;;;2.57;1.00;;;;;;;;;;4968235;28;20554;-60
2022/11/22 11:51:17;;;;;;;2.80;1.10;;;;;;;;;;4984262;28;20308;-61
2022/11/22 11:53:50;;;;;;;2.00;1.50;;;;;;;;;;4947978;28;20191;-59
2022/11/22 11:56:28;;;;;;;3.17;1.43;;;;;;;;;;4970105;28;20195;-60
2022/11/22 11:58:56;;;;;;;2.33;1.00;;;;;;;;;;4988742;28;20258;-60
2022/11/22 12:01:23;;;;;;;3.80;1.50;;;;;;;;;;4992778;28;20182;-60
2022/11/22 12:03:58;;;;;;;6.73;1.23;;;;;;;;;;5007602;28;20173;-60
2022/11/22 12:06:28;;;;;;;1.53;1.43;;;;;;;;;;4987166;28;20163;-60
2022/11/22 12:08:54;;;;;;;1.23;1.10;;;;;;;;;;4970953;28;20183;-60
2022/11/22 12:11:23;;;;;;;2.40;1.10;;;;;;;;;;4987701;28;20670;-59
2022/11/22 12:13:53;;;;;;;1.10;1.00;;;;;;;;;;4987906;28;20525;-59
2022/11/22 12:16:23;;;;;;;1.73;1.50;;;;;;;;;;4987636;28;20610;-60
2022/11/22 12:18:52;;;;;;;1.23;1.00;;;;;;;;;;4970146;28;20210;-60
2022/11/22 12:21:22;;;;;;;1.80;1.07;;;;;;;;;;4986854;28;20171;-60
2022/11/22 12:23:55;;;;;;;3.37;1.17;;;;;;;;;;4988111;28;20182;-60
2022/11/22 12:26:21;;;;;;;2.83;1.20;;;;;;;;;;4987623;28;20696;-60
2022/11/22 12:28:48;;;;;;;2.17;1.00;;;;;;;;;;4987720;28;20654;-60
2022/11/22 12:31:17;;;;;;;2.13;1.47;;;;;;;;;;4969417;28;20448;-59
2022/11/22 12:33:45;;;;;;;1.80;0.90;;;;;;;;;;4993255;28;20182;-59
2022/11/22 12:36:17;;;;;;;1.57;1.10;;;;;;;;;;5007639;28;20288;-60
2022/11/22 12:38:44;;;;;;;2.63;1.13;;;;;;;;;;4989277;28;20162;-60
2022/11/22 12:41:13;;;;;;;1.30;1.10;;;;;;;;;;5006710;28;20246;-60
2022/11/22 12:43:52;;;;;;;1.47;0.87;;;;;;;;;;5006860;28;20167;-60
2022/11/22 12:46:18;;;;;;;1.40;1.03;;;;;;;;;;5006798;28;20704;-59
2022/11/22 12:48:50;;;;;;;1.50;1.23;;;;;;;;;;5006802;28;20597;-60
2022/11/22 12:51:36;;;;;;;1.70;0.77;;;;;;;;;;5005462;28;20309;-59
2022/11/22 12:54:04;;;;;;;1.10;0.90;;;;;;;;;;5007053;28;20578;-59
2022/11/22 12:56:35;;;;;;;1.00;0.90;;;;;;;;;;5006596;28;20159;-59
2022/11/22 12:59:10;;;;;;;0.90;0.90;;;;;;;;;;4989150;28;20179;-60
2022/11/22 13:01:43;;;;;;;0.70;0.70;;;;;;;;;;5006453;28;20166;-59
2022/11/22 13:04:09;;;;;;;2.73;1.50;;;;;;;;;;5003925;28;20565;-59
2022/11/22 13:06:43;;;;;;;2.17;1.00;;;;;;;;;;4992235;28;20198;-59
2022/11/22 13:09:13;;;;;;;1.00;0.93;;;;;;;;;;5005664;28;20867;-59
2022/11/22 13:11:47;;;;;;;0.70;0.70;;;;;;;;;;4997634;28;20664;-59
2022/11/22 13:14:22;;;;;;;1.20;1.10;;;;;;;;;;4988213;28;20557;-60
2022/11/22 13:16:51;;;;;;;0.90;0.90;;;;;;;;;;4998825;28;20174;-59
2022/11/22 13:19:19;;;;;;;0.93;0.93;;;;;;;;;;5005494;28;20209;-59
2022/11/22 13:21:51;;;;;;;0.83;0.83;;;;;;;;;;5004085;28;20186;-59
2022/11/22 13:24:27;;;;;;;1.00;0.90;;;;;;;;;;5005517;28;20242;-59
2022/11/22 13:27:16;;;;;;;0.90;0.90;;;;;;;;;;5003301;28;20289;-60
2022/11/22 13:29:43;;;;;;;1.00;0.90;;;;;;;;;;4977379;28;20702;-59
2022/11/22 13:32:12;;;;;;;0.90;0.90;;;;;;;;;;4987264;28;20210;-60
2022/11/22 13:35:01;;;;;;;1.43;1.17;;;;;;;;;;5005228;28;20527;-60
2022/11/22 13:37:43;;;;;;;2.63;1.00;;;;;;;;;;4956222;28;20226;-59
2022/11/22 13:40:29;;;;;;;1.27;1.00;;;;;;;;;;4992218;28;20182;-59
2022/11/22 13:43:13;;;;;;;1.13;1.00;;;;;;;;;;4987968;28;20253;-59
2022/11/22 13:45:51;;;;;;;3.83;1.23;;;;;;;;;;4986676;28;20212;-59
2022/11/22 13:48:36;;;;;;;1.37;1.00;;;;;;;;;;4988133;28;20253;-59
2022/11/22 13:51:03;;;;;;;1.47;0.90;;;;;;;;;;4992671;28;20187;-59
2022/11/22 13:53:42;;;;;;;1.77;1.10;;;;;;;;;;5004262;28;20206;-59
2022/11/22 13:56:14;;;;;;;0.80;0.80;;;;;;;;;;5013041;28;20189;-61
2022/11/22 13:58:50;;;;;;;2.00;0.90;;;;;;;;;;4994751;28;20177;-59
2022/11/22 14:01:34;;;;;;;1.73;1.00;;;;;;;;;;5012508;28;20498;-59
2022/11/22 14:04:18;;;;;;;0.90;0.90;;;;;;;;;;5014065;28;20609;-59
2022/11/22 14:06:50;;;;;;;1.30;1.10;;;;;;;;;;4993009;28;20178;-59
2022/11/22 14:09:25;;;;;;;0.77;0.77;;;;;;;;;;5011340;28;20182;-59
2022/11/22 14:12:01;;;;;;;1.10;0.90;;;;;;;;;;4984916;28;20541;-59
2022/11/22 14:14:41;;;;;;;0.57;0.57;;;;;;;;;;5004617;28;20174;-60
2022/11/22 14:17:13;;;;;;;1.67;0.80;;;;;;;;;;4997526;28;20170;-59
2022/11/22 14:19:56;;;;;;;1.30;0.80;;;;;;;;;;5001791;28;20249;-58
2022/11/22 14:22:22;;;;;;;1.23;1.00;;;;;;;;;;5002980;28;20181;-59
2022/11/22 14:24:48;;;;;;;1.37;0.97;;;;;;;;;;5013670;28;20580;-59
2022/11/22 14:27:26;;;;;;;0.70;0.70;;;;;;;;;;5013688;28;20291;-59
2022/11/22 14:30:02;;;;;;;1.17;1.03;;;;;;;;;;4991630;28;20711;-59
2022/11/22 14:32:39;;;;;;;1.00;0.90;;;;;;;;;;4986958;28;20281;-59
2022/11/22 14:35:05;;;;;;;1.10;1.00;;;;;;;;;;4985023;28;20197;-59
2022/11/22 14:37:31;;;;;;;0.87;0.87;;;;;;;;;;4997834;28;20233;-59
2022/11/22 14:40:01;;;;;;;1.47;0.90;;;;;;;;;;5005023;28;20166;-59
2022/11/22 14:42:38;;;;;;;2.33;0.90;;;;;;;;;;5004591;28;20531;-59
2022/11/22 14:45:14;;;;;;;1.83;0.87;;;;;;;;;;5004247;28;20159;-59
2022/11/22 14:47:42;;;;;;;1.00;0.90;;;;;;;;;;4992754;28;20288;-59
2022/11/22 14:50:13;;;;;;;1.50;1.00;;;;;;;;;;4976433;28;20579;-59
2022/11/22 14:52:39;;;;;;;1.17;0.93;;;;;;;;;;4984729;28;20255;-59
2022/11/22 14:55:07;;;;;;;0.90;0.90;;;;;;;;;;4985611;28;20163;-59
2022/11/22 14:57:34;;;;;;;0.97;0.97;;;;;;;;;;4985154;28;20548;-59
2022/11/22 15:00:03;;;;;;;1.90;1.00;;;;;;;;;;4985427;28;20602;-59
2022/11/22 15:02:35;;;;;;;1.07;0.97;;;;;;;;;;4985076;28;20290;-59
2022/11/22 15:05:13;;;;;;;0.90;0.90;;;;;;;;;;4995320;28;20257;-59
2022/11/22 15:07:42;;;;;;;1.33;0.80;;;;;;;;;;5003729;28;20174;-59
2022/11/22 15:13:12;;;;;;;0.83;0.80;;;;;;;;;;5005052;28;20173;-59